createdAt,value
2023-01-28T00:00:41.989Z,5.5
2023-01-28T00:01:45.657Z,5.4
2023-01-28T00:02:49.872Z,5.5
2023-01-28T00:03:53.752Z,5.5
2023-01-28T00:04:57.168Z,5.5
2023-01-28T00:06:00.239Z,5.5
2023-01-28T00:07:03.927Z,5.5
2023-01-28T00:08:06.724Z,5.5
2023-01-28T00:09:09.462Z,5.5
2023-01-28T00:10:12.260Z,5.5
2023-01-28T00:11:15.434Z,5.5
2023-01-28T00:12:18.723Z,5.5
2023-01-28T00:13:21.446Z,5.5
2023-01-28T00:14:24.433Z,5.5
2023-01-28T00:15:27.177Z,5.5
2023-01-28T00:16:30.845Z,5.6
2023-01-28T00:17:34.102Z,5.6
2023-01-28T00:18:37.770Z,5.5
2023-01-28T00:19:41.156Z,5.6
2023-01-28T00:20:43.991Z,5.6
2023-01-28T00:21:47.062Z,5.5
2023-01-28T00:22:53.030Z,5.6
2023-01-28T00:23:56.994Z,5.5
2023-01-28T00:25:00.430Z,5.6
2023-01-28T00:26:04.398Z,5.6
2023-01-28T00:27:09.285Z,5.6
2023-01-28T00:28:12.682Z,5.6
2023-01-28T00:29:16.339Z,5.6
2023-01-28T00:30:19.427Z,5.6
2023-01-28T00:31:22.477Z,5.5
2023-01-28T00:32:25.978Z,5.6
2023-01-28T00:33:29.401Z,5.5
2023-01-28T00:34:33.054Z,5.5
2023-01-28T00:35:36.874Z,5.5
2023-01-28T00:36:39.997Z,5.5
2023-01-28T00:37:42.796Z,5.5
2023-01-28T00:38:45.919Z,5.5
2023-01-28T00:39:48.897Z,5.5
2023-01-28T00:40:52.444Z,5.6
2023-01-28T00:41:55.604Z,5.5
2023-01-28T00:42:59.374Z,5.5
2023-01-28T00:44:02.652Z,5.6
2023-01-28T00:45:05.722Z,5.5
2023-01-28T00:46:08.985Z,5.6
2023-01-28T00:47:12.728Z,5.6
2023-01-28T00:48:16.137Z,5.6
2023-01-28T00:49:19.825Z,5.6
2023-01-28T00:50:23.878Z,5.5
2023-01-28T00:51:26.882Z,5.6
2023-01-28T00:52:29.907Z,5.6
2023-01-28T00:53:33.640Z,5.5
2023-01-28T00:54:36.482Z,5.5
2023-01-28T00:55:39.896Z,5.5
2023-01-28T00:56:42.492Z,5.5
2023-01-28T00:57:45.297Z,5.6
2023-01-28T00:58:49.005Z,5.6
2023-01-28T00:59:52.110Z,5.6
2023-01-28T01:00:55.395Z,5.6
2023-01-28T01:01:58.664Z,5.6
2023-01-28T01:03:01.475Z,5.6
2023-01-28T01:04:04.645Z,5.6
2023-01-28T01:05:08.023Z,5.6
2023-01-28T01:06:11.415Z,5.6
2023-01-28T01:07:14.017Z,5.6
2023-01-28T01:08:17.430Z,5.6
2023-01-28T01:09:21.281Z,5.6
2023-01-28T01:10:25.026Z,5.6
2023-01-28T01:11:27.858Z,5.6
2023-01-28T01:12:31.257Z,5.6
2023-01-28T01:13:33.758Z,5.6
2023-01-28T01:14:37.551Z,5.6
2023-01-28T01:15:40.621Z,5.6
2023-01-28T01:16:44.467Z,5.6
2023-01-28T01:17:46.998Z,5.6
2023-01-28T01:18:50.069Z,5.6
2023-01-28T01:19:53.746Z,5.6
2023-01-28T01:20:56.999Z,5.6
2023-01-28T01:21:59.817Z,5.6
2023-01-28T01:23:02.331Z,5.6
2023-01-28T01:24:05.907Z,5.6
2023-01-28T01:25:09.505Z,5.6
2023-01-28T01:26:12.589Z,5.6
2023-01-28T01:27:15.886Z,5.6
2023-01-28T01:28:19.004Z,5.6
2023-01-28T01:29:22.007Z,5.6
2023-01-28T01:30:24.871Z,5.6
2023-01-28T01:31:27.815Z,5.6
2023-01-28T01:32:30.729Z,5.6
2023-01-28T01:33:33.946Z,5.6
2023-01-28T01:34:36.864Z,5.6
2023-01-28T01:35:39.959Z,5.6
2023-01-28T01:36:43.276Z,5.6
2023-01-28T01:37:46.761Z,5.6
2023-01-28T01:38:49.800Z,5.6
2023-01-28T01:39:52.528Z,5.6
2023-01-28T01:40:55.882Z,5.6
2023-01-28T01:41:59.928Z,5.6
2023-01-28T01:43:02.986Z,5.5
2023-01-28T01:44:06.073Z,5.6
2023-01-28T01:45:08.833Z,5.6
2023-01-28T01:46:12.058Z,5.5
2023-01-28T01:47:16.130Z,5.5
2023-01-28T01:48:18.851Z,5.6
2023-01-28T01:49:21.588Z,5.5
2023-01-28T01:50:25.020Z,5.6
2023-01-28T01:51:28.321Z,5.6
2023-01-28T01:52:31.323Z,5.6
2023-01-28T01:53:35.030Z,5.6
2023-01-28T01:54:38.379Z,5.6
2023-01-28T01:55:41.566Z,5.6
2023-01-28T01:56:44.091Z,5.6
2023-01-28T01:57:47.541Z,5.6
2023-01-28T01:58:50.956Z,5.6
2023-01-28T01:59:54.344Z,5.6
2023-01-28T02:00:57.334Z,5.6
2023-01-28T02:02:01.462Z,5.6
2023-01-28T02:03:05.246Z,5.6
2023-01-28T02:04:08.760Z,5.6
2023-01-28T02:05:12.417Z,5.5
2023-01-28T02:06:16.895Z,5.6
2023-01-28T02:07:20.186Z,5.5
2023-01-28T02:08:23.552Z,5.5
2023-01-28T02:09:27.206Z,5.5
2023-01-28T02:10:30.954Z,5.5
2023-01-28T02:11:34.345Z,5.5
2023-01-28T02:12:37.519Z,5.5
2023-01-28T02:13:40.079Z,5.5
2023-01-28T02:14:43.419Z,5.5
2023-01-28T02:15:46.749Z,5.5
2023-01-28T02:16:50.008Z,5.5
2023-01-28T02:17:53.638Z,5.5
2023-01-28T02:18:56.376Z,5.5
2023-01-28T02:19:58.542Z,5.5
2023-01-28T02:21:02.042Z,5.5
2023-01-28T02:22:04.834Z,5.5
2023-01-28T02:23:07.938Z,5.5
2023-01-28T02:24:11.247Z,5.5
2023-01-28T02:25:16.126Z,5.5
2023-01-28T02:26:20.437Z,5.5
2023-01-28T02:27:23.252Z,5.5
2023-01-28T02:28:26.261Z,5.5
2023-01-28T02:29:29.388Z,5.5
2023-01-28T02:30:32.714Z,5.5
2023-01-28T02:31:36.644Z,5.5
2023-01-28T02:32:40.492Z,5.5
2023-01-28T02:33:43.338Z,5.4
2023-01-28T02:34:47.028Z,5.5
2023-01-28T02:35:50.128Z,5.4
2023-01-28T02:36:53.468Z,5.4
2023-01-28T02:37:57.181Z,5.4
2023-01-28T02:39:00.289Z,5.4
2023-01-28T02:40:03.377Z,5.5
2023-01-28T02:41:06.666Z,5.4
2023-01-28T02:42:09.739Z,5.4
2023-01-28T02:43:12.833Z,5.4
2023-01-28T02:44:15.812Z,5.4
2023-01-28T02:45:18.922Z,5.4
2023-01-28T02:46:21.960Z,5.4
2023-01-28T02:47:25.488Z,5.4
2023-01-28T02:48:28.189Z,5.4
2023-01-28T02:49:31.624Z,5.3
2023-01-28T02:50:35.309Z,5.4
2023-01-28T02:51:38.354Z,5.3
2023-01-28T02:52:41.061Z,5.3
2023-01-28T02:53:43.826Z,5.3
2023-01-28T02:54:46.881Z,5.3
2023-01-28T02:55:50.275Z,5.3
2023-01-28T02:56:53.645Z,5.3
2023-01-28T02:57:56.083Z,5.3
2023-01-28T02:58:59.369Z,5.3
2023-01-28T03:00:02.104Z,5.3
2023-01-28T03:01:05.202Z,5.3
2023-01-28T03:02:07.909Z,5.3
2023-01-28T03:03:11.486Z,5.3
2023-01-28T03:04:14.305Z,5.4
2023-01-28T03:05:17.898Z,5.3
2023-01-28T03:06:20.601Z,5.3
2023-01-28T03:07:24.054Z,5.3
2023-01-28T03:08:27.139Z,5.4
2023-01-28T03:09:30.271Z,5.4
2023-01-28T03:10:33.116Z,5.3
2023-01-28T03:11:36.406Z,5.4
2023-01-28T03:12:40.110Z,5.4
2023-01-28T03:13:43.276Z,5.3
2023-01-28T03:14:46.367Z,5.3
2023-01-28T03:15:49.545Z,5.3
2023-01-28T03:16:53.186Z,5.3
2023-01-28T03:17:56.331Z,5.4
2023-01-28T03:18:59.131Z,5.3
2023-01-28T03:20:02.563Z,5.3
2023-01-28T03:21:05.967Z,5.3
2023-01-28T03:22:09.371Z,5.3
2023-01-28T03:23:12.799Z,5.3
2023-01-28T03:24:16.097Z,5.3
2023-01-28T03:25:19.149Z,5.3
2023-01-28T03:26:22.248Z,5.3
2023-01-28T03:27:25.311Z,5.3
2023-01-28T03:28:29.398Z,5.4
2023-01-28T03:29:32.396Z,5.3
2023-01-28T03:30:35.332Z,5.3
2023-01-28T03:31:39.020Z,5.3
2023-01-28T03:32:42.737Z,5.3
2023-01-28T03:33:45.542Z,5.3
2023-01-28T03:34:48.436Z,5.3
2023-01-28T03:35:51.481Z,5.3
2023-01-28T03:36:55.515Z,5.3
2023-01-28T03:37:58.605Z,5.3
2023-01-28T03:39:01.055Z,5.3
2023-01-28T03:40:04.233Z,5.3
2023-01-28T03:41:07.060Z,5.3
2023-01-28T03:42:10.442Z,5.3
2023-01-28T03:43:14.123Z,5.3
2023-01-28T03:44:17.561Z,5.2
2023-01-28T03:45:20.836Z,5.3
2023-01-28T03:46:24.490Z,5.3
2023-01-28T03:47:28.245Z,5.2
2023-01-28T03:48:31.368Z,5.2
2023-01-28T03:49:34.097Z,5.2
2023-01-28T03:50:37.134Z,5.2
2023-01-28T03:51:40.877Z,5.2
2023-01-28T03:52:44.288Z,5.2
2023-01-28T03:53:47.119Z,5.2
2023-01-28T03:54:50.399Z,5.2
2023-01-28T03:55:54.213Z,5.2
2023-01-28T03:56:57.589Z,5.2
2023-01-28T03:58:01.274Z,5.2
2023-01-28T03:59:04.271Z,5.2
2023-01-28T04:00:08.068Z,5.2
2023-01-28T04:01:11.065Z,5.3
2023-01-28T04:02:14.409Z,5.3
2023-01-28T04:03:17.700Z,5.3
2023-01-28T04:04:21.187Z,5.3
2023-01-28T04:05:24.839Z,5.3
2023-01-28T04:06:28.210Z,5.2
2023-01-28T04:07:31.010Z,5.3
2023-01-28T04:08:34.780Z,5.3
2023-01-28T04:09:38.055Z,5.3
2023-01-28T04:10:40.877Z,5.3
2023-01-28T04:11:43.615Z,5.3
2023-01-28T04:12:46.628Z,5.3
2023-01-28T04:13:50.422Z,5.3
2023-01-28T04:14:53.151Z,5.3
2023-01-28T04:15:56.438Z,5.3
2023-01-28T04:16:59.339Z,5.3
2023-01-28T04:18:02.712Z,5.3
2023-01-28T04:19:05.977Z,5.3
2023-01-28T04:20:09.097Z,5.3
2023-01-28T04:21:11.955Z,5.3
2023-01-28T04:22:15.985Z,5.3
2023-01-28T04:23:19.401Z,5.3
2023-01-28T04:24:23.064Z,5.2
2023-01-28T04:25:26.588Z,5.3
2023-01-28T04:26:29.132Z,5.2
2023-01-28T04:27:32.212Z,5.2
2023-01-28T04:28:35.321Z,5.2
2023-01-28T04:29:38.076Z,5.2
2023-01-28T04:30:41.335Z,5.2
2023-01-28T04:31:45.174Z,5.2
2023-01-28T04:32:48.602Z,5.1
2023-01-28T04:33:51.773Z,5.1
2023-01-28T04:34:54.848Z,5.1
2023-01-28T04:35:57.135Z,5.1
2023-01-28T04:37:00.490Z,5.1
2023-01-28T04:38:03.272Z,5.1
2023-01-28T04:39:06.335Z,5.1
2023-01-28T04:40:09.736Z,5.1
2023-01-28T04:41:13.081Z,5.1
2023-01-28T04:42:16.161Z,5.1
2023-01-28T04:43:18.944Z,5.1
2023-01-28T04:44:22.276Z,5.1
2023-01-28T04:45:25.110Z,5.1
2023-01-28T04:46:28.853Z,5.1
2023-01-28T04:47:32.126Z,5.1
2023-01-28T04:48:34.555Z,5.1
2023-01-28T04:49:37.304Z,5.1
2023-01-28T04:50:40.375Z,5.1
2023-01-28T04:51:43.756Z,5.1
2023-01-28T04:52:46.753Z,5.1
2023-01-28T04:53:49.867Z,5.1
2023-01-28T04:54:53.138Z,5.1
2023-01-28T04:55:56.632Z,5.1
2023-01-28T04:57:00.416Z,5.1
2023-01-28T04:58:03.501Z,5
2023-01-28T04:59:06.901Z,5.1
2023-01-28T05:00:10.328Z,5
2023-01-28T05:01:13.600Z,5.1
2023-01-28T05:02:17.793Z,5
2023-01-28T05:03:21.105Z,5
2023-01-28T05:04:24.475Z,5
2023-01-28T05:05:27.291Z,5
2023-01-28T05:06:30.031Z,5
2023-01-28T05:07:33.140Z,5
2023-01-28T05:08:35.687Z,5
2023-01-28T05:09:38.803Z,5
2023-01-28T05:10:42.527Z,4.9
2023-01-28T05:11:46.036Z,5
2023-01-28T05:12:48.845Z,5
2023-01-28T05:13:51.940Z,5
2023-01-28T05:14:54.928Z,5
2023-01-28T05:15:58.098Z,5.1
2023-01-28T05:17:01.768Z,5.1
2023-01-28T05:18:05.390Z,5.1
2023-01-28T05:19:08.805Z,5.1
2023-01-28T05:20:12.638Z,5.1
2023-01-28T05:21:15.950Z,5.1
2023-01-28T05:22:19.050Z,5.1
2023-01-28T05:23:22.527Z,5.1
2023-01-28T05:24:26.944Z,5.1
2023-01-28T05:25:30.335Z,5
2023-01-28T05:26:32.796Z,5.1
2023-01-28T05:27:35.665Z,5
2023-01-28T05:28:38.529Z,5
2023-01-28T05:29:41.610Z,5.1
2023-01-28T05:30:43.895Z,5
2023-01-28T05:31:47.520Z,5
2023-01-28T05:32:51.234Z,5
2023-01-28T05:33:54.170Z,5
2023-01-28T05:34:58.348Z,5
2023-01-28T05:36:01.806Z,5
2023-01-28T05:37:05.407Z,5
2023-01-28T05:38:08.598Z,5
2023-01-28T05:39:12.478Z,5
2023-01-28T05:40:16.736Z,4.9
2023-01-28T05:41:21.398Z,4.9
2023-01-28T05:42:25.222Z,4.9
2023-01-28T05:43:28.631Z,4.9
2023-01-28T05:44:31.347Z,4.9
2023-01-28T05:45:35.203Z,4.9
2023-01-28T05:46:39.121Z,4.8
2023-01-28T05:47:45.778Z,4.8
2023-01-28T05:48:49.286Z,4.8
2023-01-28T05:49:52.819Z,4.8
2023-01-28T05:50:56.484Z,4.8
2023-01-28T05:51:58.732Z,4.8
2023-01-28T05:53:01.779Z,4.8
2023-01-28T05:54:05.110Z,4.8
2023-01-28T05:55:07.655Z,4.8
2023-01-28T05:56:10.788Z,4.8
2023-01-28T05:57:13.967Z,4.8
2023-01-28T05:58:18.197Z,4.7
2023-01-28T05:59:22.293Z,4.7
2023-01-28T06:00:25.201Z,4.7
2023-01-28T06:01:28.276Z,4.7
2023-01-28T06:02:31.257Z,4.7
2023-01-28T06:03:34.887Z,4.7
2023-01-28T06:04:38.278Z,4.7
2023-01-28T06:05:40.801Z,4.7
2023-01-28T06:06:43.887Z,4.6
2023-01-28T06:07:46.689Z,4.7
2023-01-28T06:08:50.456Z,4.6
2023-01-28T06:09:53.549Z,4.6
2023-01-28T06:10:56.846Z,4.6
2023-01-28T06:11:59.562Z,4.6
2023-01-28T06:13:02.635Z,4.6
2023-01-28T06:14:05.339Z,4.6
2023-01-28T06:15:08.813Z,4.6
2023-01-28T06:16:12.338Z,4.6
2023-01-28T06:17:15.662Z,4.6
2023-01-28T06:18:18.732Z,4.6
2023-01-28T06:19:21.413Z,4.5
2023-01-28T06:20:24.491Z,4.5
2023-01-28T06:21:30.904Z,4.5
2023-01-28T06:22:34.322Z,4.5
2023-01-28T06:23:37.929Z,4.4
2023-01-28T06:24:40.961Z,4.4
2023-01-28T06:25:44.053Z,4.4
2023-01-28T06:26:47.587Z,4.4
2023-01-28T06:27:50.976Z,4.4
2023-01-28T06:28:54.123Z,4.4
2023-01-28T06:29:57.308Z,4.3
2023-01-28T06:31:00.685Z,4.3
2023-01-28T06:32:03.334Z,4.3
2023-01-28T06:33:06.429Z,4.3
2023-01-28T06:34:09.299Z,4.2
2023-01-28T06:35:12.644Z,4.2
2023-01-28T06:36:15.729Z,4.2
2023-01-28T06:37:19.155Z,4.2
2023-01-28T06:38:22.545Z,4.2
2023-01-28T06:39:26.302Z,4.1
2023-01-28T06:40:29.622Z,4.1
2023-01-28T06:41:33.043Z,4.1
2023-01-28T06:42:35.922Z,4.1
2023-01-28T06:43:39.104Z,4.1
2023-01-28T06:44:42.401Z,4
2023-01-28T06:45:45.540Z,4
2023-01-28T06:46:49.200Z,4
2023-01-28T06:47:52.299Z,3.9
2023-01-28T06:48:56.063Z,4
2023-01-28T06:49:59.057Z,3.9
2023-01-28T06:51:02.084Z,3.9
2023-01-28T06:52:05.193Z,3.9
2023-01-28T06:53:08.699Z,3.9
2023-01-28T06:54:12.432Z,3.9
2023-01-28T06:55:15.355Z,3.9
2023-01-28T06:56:18.630Z,3.9
2023-01-28T06:57:21.810Z,3.9
2023-01-28T06:58:24.638Z,3.9
2023-01-28T06:59:27.368Z,3.9
2023-01-28T07:00:30.450Z,3.8
2023-01-28T07:01:33.414Z,3.8
2023-01-28T07:02:36.587Z,3.8
2023-01-28T07:03:40.216Z,3.8
2023-01-28T07:04:43.282Z,3.8
2023-01-28T07:05:46.639Z,3.8
2023-01-28T07:06:50.415Z,3.8
2023-01-28T07:07:53.517Z,3.7
2023-01-28T07:08:56.763Z,3.7
2023-01-28T07:10:00.181Z,3.7
2023-01-28T07:11:03.363Z,3.7
2023-01-28T07:12:06.852Z,3.7
2023-01-28T07:13:09.827Z,3.7
2023-01-28T07:14:12.730Z,3.7
2023-01-28T07:15:16.311Z,3.6
2023-01-28T07:16:19.752Z,3.6
2023-01-28T07:17:22.990Z,3.6
2023-01-28T07:18:26.367Z,3.6
2023-01-28T07:19:30.097Z,3.6
2023-01-28T07:20:33.534Z,3.6
2023-01-28T07:21:36.066Z,3.6
2023-01-28T07:22:39.811Z,3.6
2023-01-28T07:23:43.185Z,3.6
2023-01-28T07:24:46.371Z,3.6
2023-01-28T07:25:49.492Z,3.6
2023-01-28T07:26:53.219Z,3.5
2023-01-28T07:27:56.988Z,3.6
2023-01-28T07:29:00.356Z,3.5
2023-01-28T07:30:03.253Z,3.5
2023-01-28T07:31:06.471Z,3.5
2023-01-28T07:32:09.957Z,3.5
2023-01-28T07:33:13.084Z,3.5
2023-01-28T07:34:17.195Z,3.5
2023-01-28T07:35:19.921Z,3.5
2023-01-28T07:36:23.022Z,3.5
2023-01-28T07:37:26.197Z,3.5
2023-01-28T07:38:29.178Z,3.5
2023-01-28T07:39:32.371Z,3.5
2023-01-28T07:40:35.163Z,3.5
2023-01-28T07:41:38.941Z,3.5
2023-01-28T07:42:42.939Z,3.5
2023-01-28T07:43:46.587Z,3.5
2023-01-28T07:44:49.663Z,3.5
2023-01-28T07:45:52.768Z,3.5
2023-01-28T07:46:56.070Z,3.5
2023-01-28T07:47:58.962Z,3.5
2023-01-28T07:49:02.395Z,3.5
2023-01-28T07:50:05.820Z,3.5
2023-01-28T07:51:09.228Z,3.5
2023-01-28T07:52:12.078Z,3.5
2023-01-28T07:53:15.519Z,3.5
2023-01-28T07:54:19.169Z,3.5
2023-01-28T07:55:22.551Z,3.5
2023-01-28T07:56:26.346Z,3.5
2023-01-28T07:57:29.781Z,3.5
2023-01-28T07:58:33.566Z,3.5
2023-01-28T07:59:36.739Z,3.5
2023-01-28T08:00:39.837Z,3.5
2023-01-28T08:01:43.449Z,3.5
2023-01-28T08:02:47.646Z,3.6
2023-01-28T08:03:50.949Z,3.6
2023-01-28T08:04:54.998Z,3.6
2023-01-28T08:05:58.989Z,3.6
2023-01-28T08:07:01.975Z,3.6
2023-01-28T08:08:04.987Z,3.6
2023-01-28T08:09:08.127Z,3.7
2023-01-28T08:10:11.433Z,3.6
2023-01-28T08:11:16.701Z,3.7
2023-01-28T08:12:19.516Z,3.7
2023-01-28T08:13:22.903Z,3.7
2023-01-28T08:14:25.611Z,3.7
2023-01-28T08:15:29.195Z,3.8
2023-01-28T08:16:34.826Z,3.8
2023-01-28T08:17:37.360Z,3.8
2023-01-28T08:18:40.641Z,3.8
2023-01-28T08:19:44.395Z,3.9
2023-01-28T08:20:47.770Z,3.9
2023-01-28T08:21:51.246Z,3.9
2023-01-28T08:22:54.609Z,3.9
2023-01-28T08:23:58.342Z,4
2023-01-28T08:25:01.298Z,3.9
2023-01-28T08:26:04.679Z,4
2023-01-28T08:27:08.160Z,4
2023-01-28T08:28:11.164Z,4
2023-01-28T08:29:14.269Z,4
2023-01-28T08:30:18.464Z,4.1
2023-01-28T08:31:22.225Z,4.1
2023-01-28T08:32:25.588Z,4.1
2023-01-28T08:33:28.961Z,4.1
2023-01-28T08:34:32.752Z,4.1
2023-01-28T08:35:36.027Z,4.1
2023-01-28T08:36:39.042Z,4.2
2023-01-28T08:37:42.208Z,4.2
2023-01-28T08:38:45.204Z,4.2
2023-01-28T08:39:48.624Z,4.2
2023-01-28T08:40:52.007Z,4.2
2023-01-28T08:41:54.728Z,4.2
2023-01-28T08:42:57.848Z,4.3
2023-01-28T08:44:00.921Z,4.3
2023-01-28T08:45:04.738Z,4.3
2023-01-28T08:46:07.581Z,4.3
2023-01-28T08:47:10.875Z,4.3
2023-01-28T08:48:14.593Z,4.3
2023-01-28T08:49:17.673Z,4.3
2023-01-28T08:50:21.321Z,4.3
2023-01-28T08:51:25.017Z,4.4
2023-01-28T08:52:28.092Z,4.4
2023-01-28T08:53:31.873Z,4.4
2023-01-28T08:54:34.953Z,4.4
2023-01-28T08:55:38.718Z,4.4
2023-01-28T08:56:41.711Z,4.4
2023-01-28T08:57:45.051Z,4.5
2023-01-28T08:58:48.387Z,4.5
2023-01-28T08:59:52.185Z,4.5
2023-01-28T09:00:55.587Z,4.5
2023-01-28T09:01:58.598Z,4.5
2023-01-28T09:03:05.833Z,4.5
2023-01-28T09:04:09.585Z,4.5
2023-01-28T09:05:12.638Z,4.5
2023-01-28T09:06:15.764Z,4.5
2023-01-28T09:07:19.144Z,4.5
2023-01-28T09:08:25.902Z,4.5
2023-01-28T09:09:29.087Z,4.5
2023-01-28T09:10:31.989Z,4.6
2023-01-28T09:11:35.128Z,4.5
2023-01-28T09:12:37.565Z,4.6
2023-01-28T09:13:40.651Z,4.6
2023-01-28T09:14:43.817Z,4.6
2023-01-28T09:15:47.605Z,4.6
2023-01-28T09:16:51.115Z,4.6
2023-01-28T09:17:53.904Z,4.7
2023-01-28T09:18:56.905Z,4.7
2023-01-28T09:20:00.162Z,4.7
2023-01-28T09:21:03.633Z,4.7
2023-01-28T09:22:06.959Z,4.7
2023-01-28T09:23:10.292Z,4.8
2023-01-28T09:24:13.485Z,4.8
2023-01-28T09:25:17.398Z,4.8
2023-01-28T09:26:20.189Z,4.8
2023-01-28T09:27:23.894Z,4.8
2023-01-28T09:28:27.991Z,4.9
2023-01-28T09:29:30.923Z,4.9
2023-01-28T09:30:38.446Z,4.9
2023-01-28T09:31:42.336Z,4.9
2023-01-28T09:32:46.170Z,4.9
2023-01-28T09:33:49.167Z,4.9
2023-01-28T09:34:52.843Z,4.9
2023-01-28T09:35:55.943Z,4.9
2023-01-28T09:36:59.348Z,4.9
2023-01-28T09:38:03.044Z,4.9
2023-01-28T09:39:06.302Z,4.9
2023-01-28T09:40:09.695Z,4.9
2023-01-28T09:41:12.899Z,4.9
2023-01-28T09:42:15.907Z,4.9
2023-01-28T09:43:19.015Z,4.9
2023-01-28T09:44:21.801Z,4.9
2023-01-28T09:45:24.307Z,4.9
2023-01-28T09:46:27.617Z,5
2023-01-28T09:47:30.926Z,4.9
2023-01-28T09:48:34.025Z,4.9
2023-01-28T09:49:36.738Z,5
2023-01-28T09:50:40.199Z,5
2023-01-28T09:51:43.522Z,5
2023-01-28T09:52:46.527Z,5
2023-01-28T09:53:51.050Z,5
2023-01-28T09:54:54.405Z,5
2023-01-28T09:55:57.270Z,5
2023-01-28T09:57:01.031Z,5.1
2023-01-28T09:58:03.834Z,5.1
2023-01-28T09:59:06.842Z,5.1
2023-01-28T10:00:09.746Z,5.1
2023-01-28T10:01:12.129Z,5.1
2023-01-28T10:02:15.196Z,5.1
2023-01-28T10:03:18.359Z,5.1
2023-01-28T10:04:21.809Z,5.1
2023-01-28T10:05:25.569Z,5.2
2023-01-28T10:06:28.485Z,5.2
2023-01-28T10:07:31.011Z,5.2
2023-01-28T10:08:34.759Z,5.2
2023-01-28T10:09:37.500Z,5.2
2023-01-28T10:10:40.487Z,5.3
2023-01-28T10:11:43.867Z,5.3
2023-01-28T10:12:47.322Z,5.3
2023-01-28T10:13:50.823Z,5.3
2023-01-28T10:14:54.188Z,5.3
2023-01-28T10:15:57.328Z,5.3
2023-01-28T10:17:00.018Z,5.3
2023-01-28T10:18:19.026Z,5.3
2023-01-28T10:19:22.171Z,5.3
2023-01-28T10:20:25.542Z,5.4
2023-01-28T10:21:29.225Z,5.4
2023-01-28T10:22:32.351Z,5.4
2023-01-28T10:23:35.744Z,5.4
2023-01-28T10:24:39.487Z,5.4
2023-01-28T10:25:42.206Z,5.4
2023-01-28T10:26:45.880Z,5.4
2023-01-28T10:27:48.845Z,5.4
2023-01-28T10:28:52.562Z,5.5
2023-01-28T10:29:55.653Z,5.5
2023-01-28T10:30:58.658Z,5.5
2023-01-28T10:32:01.946Z,5.5
2023-01-28T10:33:05.065Z,5.5
2023-01-28T10:34:08.127Z,5.5
2023-01-28T10:35:11.269Z,5.5
2023-01-28T10:36:14.780Z,5.5
2023-01-28T10:37:17.870Z,5.5
2023-01-28T10:38:21.373Z,5.5
2023-01-28T10:39:24.752Z,5.5
2023-01-28T10:40:28.565Z,5.5
2023-01-28T10:41:31.358Z,5.5
2023-01-28T10:42:33.808Z,5.5
2023-01-28T10:43:37.555Z,5.5
2023-01-28T10:44:41.294Z,5.5
2023-01-28T10:45:44.523Z,5.6
2023-01-28T10:46:48.416Z,5.5
2023-01-28T10:47:51.908Z,5.5
2023-01-28T10:48:55.292Z,5.5
2023-01-28T10:49:58.042Z,5.6
2023-01-28T10:51:01.459Z,5.6
2023-01-28T10:52:04.905Z,5.6
2023-01-28T10:53:08.010Z,5.6
2023-01-28T10:54:11.702Z,5.6
2023-01-28T10:55:14.687Z,5.6
2023-01-28T10:56:17.968Z,5.6
2023-01-28T10:57:21.503Z,5.6
2023-01-28T10:58:25.271Z,5.6
2023-01-28T10:59:28.268Z,5.6
2023-01-28T11:00:31.957Z,5.6
2023-01-28T11:01:34.706Z,5.6
2023-01-28T11:02:38.824Z,5.6
2023-01-28T11:03:41.851Z,5.6
2023-01-28T11:04:45.203Z,5.6
2023-01-28T11:05:47.951Z,5.6
2023-01-28T11:06:51.015Z,5.6
2023-01-28T11:07:54.442Z,5.6
2023-01-28T11:08:57.013Z,5.6
2023-01-28T11:10:03.995Z,5.6
2023-01-28T11:11:07.444Z,5.6
2023-01-28T11:12:10.264Z,5.6
2023-01-28T11:13:13.917Z,5.6
2023-01-28T11:14:16.724Z,5.7
2023-01-28T11:15:19.835Z,5.7
2023-01-28T11:16:22.845Z,5.7
2023-01-28T11:17:26.802Z,5.8
2023-01-28T11:18:30.229Z,5.7
2023-01-28T11:19:33.271Z,5.7
2023-01-28T11:20:36.680Z,5.7
2023-01-28T11:21:40.053Z,5.8
2023-01-28T11:22:43.127Z,5.7
2023-01-28T11:23:46.521Z,5.7
2023-01-28T11:24:50.169Z,5.7
2023-01-28T11:25:53.575Z,5.8
2023-01-28T11:26:56.672Z,5.8
2023-01-28T11:27:59.986Z,5.9
2023-01-28T11:29:02.563Z,5.9
2023-01-28T11:30:06.111Z,5.9
2023-01-28T11:31:09.668Z,5.9
2023-01-28T11:32:13.526Z,6
2023-01-28T11:33:16.885Z,6
2023-01-28T11:34:21.069Z,6.1
2023-01-28T11:35:24.167Z,6.1
2023-01-28T11:36:26.741Z,6.1
2023-01-28T11:37:30.343Z,6.2
2023-01-28T11:38:33.350Z,6.2
2023-01-28T11:39:37.038Z,6.3
2023-01-28T11:40:40.061Z,6.3
2023-01-28T11:41:43.096Z,6.3
2023-01-28T11:42:47.153Z,6.4
2023-01-28T11:43:49.699Z,6.5
2023-01-28T11:44:52.978Z,6.5
2023-01-28T11:45:56.452Z,6.6
2023-01-28T11:47:00.127Z,6.7
2023-01-28T11:48:04.262Z,6.8
2023-01-28T11:49:07.581Z,6.9
2023-01-28T11:50:10.949Z,7
2023-01-28T11:51:13.801Z,7
2023-01-28T11:52:16.530Z,7.1
2023-01-28T11:53:20.285Z,7
2023-01-28T11:54:22.944Z,7
2023-01-28T11:55:27.173Z,7.1
2023-01-28T11:56:30.078Z,7.1
2023-01-28T11:57:33.499Z,7.1
2023-01-28T11:58:37.147Z,7.2
2023-01-28T11:59:39.605Z,7.2
2023-01-28T12:00:42.954Z,7.3
2023-01-28T12:01:46.716Z,7.3
2023-01-28T12:02:50.605Z,7.3
2023-01-28T12:03:54.802Z,7.4
2023-01-28T12:04:57.981Z,7.4
2023-01-28T12:06:01.398Z,7.5
2023-01-28T12:07:04.570Z,7.5
2023-01-28T12:08:07.335Z,7.6
2023-01-28T12:09:10.383Z,7.7
2023-01-28T12:10:15.092Z,7.7
2023-01-28T12:11:19.903Z,7.8
2023-01-28T12:12:22.618Z,8
2023-01-28T12:13:26.015Z,8.1
2023-01-28T12:14:29.104Z,8.1
2023-01-28T12:15:32.009Z,8.2
2023-01-28T12:16:35.763Z,8.2
2023-01-28T12:17:38.564Z,8.3
2023-01-28T12:18:41.618Z,8.2
2023-01-28T12:19:45.312Z,8.2
2023-01-28T12:20:48.849Z,8.2
2023-01-28T12:21:52.017Z,8.2
2023-01-28T12:22:55.297Z,8.1
2023-01-28T12:24:01.393Z,8.1
2023-01-28T12:25:05.287Z,8.1
2023-01-28T12:26:08.146Z,8.1
2023-01-28T12:27:11.920Z,8.2
2023-01-28T12:28:15.194Z,8.3
2023-01-28T12:29:18.681Z,8.3
2023-01-28T12:30:22.348Z,8.4
2023-01-28T12:31:25.990Z,8.4
2023-01-28T12:32:29.857Z,8.5
2023-01-28T12:33:32.941Z,8.6
2023-01-28T12:34:36.393Z,8.7
2023-01-28T12:35:40.426Z,8.8
2023-01-28T12:36:43.486Z,8.9
2023-01-28T12:37:46.529Z,9
2023-01-28T12:38:50.183Z,9.2
2023-01-28T12:39:53.190Z,9.2
2023-01-28T12:40:56.581Z,9.3
2023-01-28T12:41:59.583Z,9.4
2023-01-28T12:43:02.670Z,9.5
2023-01-28T12:44:05.389Z,9.6
2023-01-28T12:45:07.906Z,9.7
2023-01-28T12:46:10.922Z,9.8
2023-01-28T12:47:13.500Z,10
2023-01-28T12:48:16.580Z,10.1
2023-01-28T12:49:19.941Z,10.1
2023-01-28T12:50:23.392Z,10.2
2023-01-28T12:51:26.801Z,10.2
2023-01-28T12:52:29.695Z,10.2
2023-01-28T12:53:32.422Z,10.2
2023-01-28T12:54:35.432Z,10.2
2023-01-28T12:55:38.509Z,10.3
2023-01-28T12:56:41.742Z,10.3
2023-01-28T12:57:45.050Z,10.4
2023-01-28T12:58:48.223Z,10.5
2023-01-28T12:59:50.935Z,10.5
2023-01-28T13:00:54.016Z,10.6
2023-01-28T13:01:57.891Z,10.6
2023-01-28T13:03:01.094Z,10.7
2023-01-28T13:04:04.105Z,10.8
2023-01-28T13:05:07.545Z,10.8
2023-01-28T13:06:11.648Z,10.9
2023-01-28T13:07:14.512Z,10.9
2023-01-28T13:08:17.268Z,11
2023-01-28T13:09:20.332Z,11
2023-01-28T13:10:23.591Z,11.1
2023-01-28T13:11:27.103Z,11.1
2023-01-28T13:12:30.864Z,11.1
2023-01-28T13:13:33.715Z,11.1
2023-01-28T13:14:37.468Z,11
2023-01-28T13:15:40.255Z,11
2023-01-28T13:16:44.242Z,11.1
2023-01-28T13:17:48.509Z,11.1
2023-01-28T13:18:51.967Z,11.1
2023-01-28T13:19:54.754Z,11.1
2023-01-28T13:20:58.571Z,11.2
2023-01-28T13:22:01.570Z,11.1
2023-01-28T13:23:04.804Z,11.1
2023-01-28T13:24:08.089Z,11.1
2023-01-28T13:25:12.444Z,11.1
2023-01-28T13:26:17.252Z,11.1
2023-01-28T13:27:21.017Z,11.1
2023-01-28T13:28:24.102Z,11.1
2023-01-28T13:29:27.159Z,11.1
2023-01-28T13:30:31.061Z,11.1
2023-01-28T13:31:34.600Z,11.1
2023-01-28T13:32:38.395Z,11.1
2023-01-28T13:33:42.002Z,11.2
2023-01-28T13:34:46.174Z,11.1
2023-01-28T13:35:49.808Z,11.1
2023-01-28T13:36:53.280Z,11.1
2023-01-28T13:37:57.160Z,11
2023-01-28T13:39:01.462Z,10.9
2023-01-28T13:40:04.670Z,10.8
2023-01-28T13:41:07.676Z,10.8
2023-01-28T13:42:10.759Z,10.7
2023-01-28T13:43:13.767Z,10.6
2023-01-28T13:44:16.893Z,10.6
2023-01-28T13:45:20.717Z,10.5
2023-01-28T13:46:24.408Z,10.4
2023-01-28T13:47:28.101Z,10.3
2023-01-28T13:48:31.524Z,10.1
2023-01-28T13:49:35.257Z,10
2023-01-28T13:50:39.019Z,9.9
2023-01-28T13:51:42.717Z,9.8
2023-01-28T13:52:45.525Z,9.7
2023-01-28T13:53:48.783Z,9.5
2023-01-28T13:54:52.543Z,9.4
2023-01-28T13:55:55.668Z,9.4
2023-01-28T13:56:58.113Z,9.2
2023-01-28T13:58:00.901Z,9.1
2023-01-28T13:59:04.643Z,9
2023-01-28T14:00:07.759Z,8.8
2023-01-28T14:01:11.355Z,8.7
2023-01-28T14:02:14.986Z,8.6
2023-01-28T14:03:18.352Z,8.5
2023-01-28T14:04:21.569Z,8.4
2023-01-28T14:05:25.066Z,8.3
2023-01-28T14:06:28.467Z,8.3
2023-01-28T14:07:31.555Z,8.2
2023-01-28T14:08:34.596Z,8.1
2023-01-28T14:09:38.259Z,8
2023-01-28T14:10:41.710Z,7.9
2023-01-28T14:11:44.561Z,7.8
2023-01-28T14:12:47.896Z,7.7
2023-01-28T14:13:51.325Z,7.6
2023-01-28T14:14:54.687Z,7.5
2023-01-28T14:15:58.290Z,7.4
2023-01-28T14:17:02.654Z,7.3
2023-01-28T14:18:06.605Z,7.3
2023-01-28T14:19:09.981Z,7.2
2023-01-28T14:20:14.154Z,7.1
2023-01-28T14:21:18.494Z,7.1
2023-01-28T14:22:21.831Z,7
2023-01-28T14:23:25.116Z,7
2023-01-28T14:24:28.487Z,7
2023-01-28T14:25:32.078Z,6.9
2023-01-28T14:26:35.778Z,6.8
2023-01-28T14:27:38.672Z,6.8
2023-01-28T14:28:41.023Z,6.8
2023-01-28T14:29:44.748Z,6.8
2023-01-28T14:30:48.409Z,6.8
2023-01-28T14:31:53.745Z,6.8
2023-01-28T14:32:57.391Z,6.8
2023-01-28T14:34:00.850Z,6.8
2023-01-28T14:35:03.933Z,6.7